sensor_id;sensor_type;location;lat;lon;timestamp;P1;durP1;ratioP1;P2;durP2;ratioP2
26774;SDS011;14362;51.902;7.626;2023-01-01T00:00:16;19.45;;;8.57;;
26774;SDS011;14362;51.902;7.626;2023-01-01T00:04:17;14.68;;;9.27;;
26774;SDS011;14362;51.902;7.626;2023-01-01T00:08:19;20.45;;;9.98;;
26774;SDS011;14362;51.902;7.626;2023-01-01T00:12:20;18.35;;;10.65;;
26774;SDS011;14362;51.902;7.626;2023-01-01T00:16:23;16.33;;;10.35;;
26774;SDS011;14362;51.902;7.626;2023-01-01T00:20:24;20.45;;;11.88;;
26774;SDS011;14362;51.902;7.626;2023-01-01T00:24:26;18.88;;;11.25;;
26774;SDS011;14362;51.902;7.626;2023-01-01T00:28:27;23.00;;;11.35;;
26774;SDS011;14362;51.902;7.626;2023-01-01T00:32:30;17.73;;;10.30;;
26774;SDS011;14362;51.902;7.626;2023-01-01T00:36:31;20.20;;;10.02;;
26774;SDS011;14362;51.902;7.626;2023-01-01T00:40:33;15.60;;;9.57;;
26774;SDS011;14362;51.902;7.626;2023-01-01T00:44:34;19.80;;;8.70;;
26774;SDS011;14362;51.902;7.626;2023-01-01T00:48:37;14.88;;;7.88;;
26774;SDS011;14362;51.902;7.626;2023-01-01T00:52:38;16.73;;;7.30;;
26774;SDS011;14362;51.902;7.626;2023-01-01T00:56:40;24.27;;;6.85;;
26774;SDS011;14362;51.902;7.626;2023-01-01T01:00:41;12.73;;;6.10;;
26774;SDS011;14362;51.902;7.626;2023-01-01T01:04:44;19.30;;;6.35;;
26774;SDS011;14362;51.902;7.626;2023-01-01T01:08:46;16.38;;;5.85;;
26774;SDS011;14362;51.902;7.626;2023-01-01T01:12:47;12.43;;;5.43;;
26774;SDS011;14362;51.902;7.626;2023-01-01T01:16:49;15.40;;;5.20;;
26774;SDS011;14362;51.902;7.626;2023-01-01T01:20:52;10.65;;;5.45;;
26774;SDS011;14362;51.902;7.626;2023-01-01T01:24:54;13.63;;;5.30;;
26774;SDS011;14362;51.902;7.626;2023-01-01T01:28:56;11.95;;;5.32;;
26774;SDS011;14362;51.902;7.626;2023-01-01T01:32:58;14.75;;;5.68;;
26774;SDS011;14362;51.902;7.626;2023-01-01T01:37:00;13.13;;;6.63;;
26774;SDS011;14362;51.902;7.626;2023-01-01T01:41:03;15.30;;;7.50;;
26774;SDS011;14362;51.902;7.626;2023-01-01T01:45:05;17.42;;;8.60;;
26774;SDS011;14362;51.902;7.626;2023-01-01T01:49:11;18.92;;;9.52;;
26774;SDS011;14362;51.902;7.626;2023-01-01T01:53:18;17.25;;;10.00;;
26774;SDS011;14362;51.902;7.626;2023-01-01T01:57:23;23.65;;;11.13;;
26774;SDS011;14362;51.902;7.626;2023-01-01T02:01:24;18.80;;;10.82;;
26774;SDS011;14362;51.902;7.626;2023-01-01T02:05:26;18.92;;;12.23;;
26774;SDS011;14362;51.902;7.626;2023-01-01T02:09:30;24.10;;;11.80;;
26774;SDS011;14362;51.902;7.626;2023-01-01T02:13:32;20.15;;;11.80;;
26774;SDS011;14362;51.902;7.626;2023-01-01T02:17:33;16.17;;;10.77;;
26774;SDS011;14362;51.902;7.626;2023-01-01T02:21:43;15.20;;;10.65;;
26774;SDS011;14362;51.902;7.626;2023-01-01T02:25:59;16.55;;;9.27;;
26774;SDS011;14362;51.902;7.626;2023-01-01T02:30:11;17.42;;;10.32;;
26774;SDS011;14362;51.902;7.626;2023-01-01T02:34:13;17.27;;;9.82;;
26774;SDS011;14362;51.902;7.626;2023-01-01T02:38:21;23.58;;;8.68;;
26774;SDS011;14362;51.902;7.626;2023-01-01T02:42:26;14.52;;;8.18;;
26774;SDS011;14362;51.902;7.626;2023-01-01T02:46:31;15.27;;;8.70;;
26774;SDS011;14362;51.902;7.626;2023-01-01T02:50:33;16.60;;;7.03;;
26774;SDS011;14362;51.902;7.626;2023-01-01T02:54:36;10.20;;;7.10;;
26774;SDS011;14362;51.902;7.626;2023-01-01T02:58:46;12.60;;;7.00;;
26774;SDS011;14362;51.902;7.626;2023-01-01T03:03:15;15.40;;;6.53;;
26774;SDS011;14362;51.902;7.626;2023-01-01T03:07:26;13.63;;;7.30;;
26774;SDS011;14362;51.902;7.626;2023-01-01T03:11:36;12.95;;;6.32;;
26774;SDS011;14362;51.902;7.626;2023-01-01T03:15:45;10.65;;;6.28;;
26774;SDS011;14362;51.902;7.626;2023-01-01T03:19:53;12.13;;;5.93;;
26774;SDS011;14362;51.902;7.626;2023-01-01T03:28:01;7.47;;;4.57;;
26774;SDS011;14362;51.902;7.626;2023-01-01T03:32:05;8.60;;;5.20;;
26774;SDS011;14362;51.902;7.626;2023-01-01T03:36:13;7.38;;;4.40;;
26774;SDS011;14362;51.902;7.626;2023-01-01T03:40:19;9.65;;;4.28;;
26774;SDS011;14362;51.902;7.626;2023-01-01T03:44:23;9.63;;;4.22;;
26774;SDS011;14362;51.902;7.626;2023-01-01T03:48:27;6.57;;;3.13;;
26774;SDS011;14362;51.902;7.626;2023-01-01T03:52:56;8.70;;;2.92;;
26774;SDS011;14362;51.902;7.626;2023-01-01T03:57:05;7.03;;;2.45;;
26774;SDS011;14362;51.902;7.626;2023-01-01T04:01:11;8.73;;;2.75;;
26774;SDS011;14362;51.902;7.626;2023-01-01T04:05:18;7.72;;;2.25;;
26774;SDS011;14362;51.902;7.626;2023-01-01T04:09:22;4.93;;;2.30;;
26774;SDS011;14362;51.902;7.626;2023-01-01T04:13:29;4.40;;;1.95;;
26774;SDS011;14362;51.902;7.626;2023-01-01T04:17:30;7.40;;;2.17;;
26774;SDS011;14362;51.902;7.626;2023-01-01T04:21:31;5.57;;;1.83;;
26774;SDS011;14362;51.902;7.626;2023-01-01T04:25:34;2.60;;;1.75;;
26774;SDS011;14362;51.902;7.626;2023-01-01T04:29:36;5.13;;;1.73;;
26774;SDS011;14362;51.902;7.626;2023-01-01T04:33:40;3.47;;;1.88;;
26774;SDS011;14362;51.902;7.626;2023-01-01T04:37:42;4.63;;;1.70;;
26774;SDS011;14362;51.902;7.626;2023-01-01T04:41:46;3.63;;;1.90;;
26774;SDS011;14362;51.902;7.626;2023-01-01T04:45:53;5.13;;;1.77;;
26774;SDS011;14362;51.902;7.626;2023-01-01T04:49:55;5.70;;;1.85;;
26774;SDS011;14362;51.902;7.626;2023-01-01T04:53:57;4.20;;;2.13;;
26774;SDS011;14362;51.902;7.626;2023-01-01T04:58:00;5.47;;;1.90;;
26774;SDS011;14362;51.902;7.626;2023-01-01T05:02:01;6.05;;;1.60;;
26774;SDS011;14362;51.902;7.626;2023-01-01T05:06:03;4.45;;;1.60;;
26774;SDS011;14362;51.902;7.626;2023-01-01T05:10:07;5.55;;;2.05;;
26774;SDS011;14362;51.902;7.626;2023-01-01T05:14:10;7.40;;;1.90;;
26774;SDS011;14362;51.902;7.626;2023-01-01T05:18:11;4.85;;;1.48;;
26774;SDS011;14362;51.902;7.626;2023-01-01T05:22:12;4.93;;;1.65;;
26774;SDS011;14362;51.902;7.626;2023-01-01T05:26:15;5.30;;;1.35;;
26774;SDS011;14362;51.902;7.626;2023-01-01T05:30:18;5.20;;;1.80;;
26774;SDS011;14362;51.902;7.626;2023-01-01T05:34:20;3.95;;;1.65;;
26774;SDS011;14362;51.902;7.626;2023-01-01T05:38:22;4.25;;;1.85;;
26774;SDS011;14362;51.902;7.626;2023-01-01T05:42:23;4.25;;;1.70;;
26774;SDS011;14362;51.902;7.626;2023-01-01T05:46:26;3.85;;;1.70;;
26774;SDS011;14362;51.902;7.626;2023-01-01T05:50:27;7.32;;;1.90;;
26774;SDS011;14362;51.902;7.626;2023-01-01T05:54:29;6.55;;;1.90;;
26774;SDS011;14362;51.902;7.626;2023-01-01T05:58:31;5.22;;;1.98;;
26774;SDS011;14362;51.902;7.626;2023-01-01T06:02:35;4.03;;;1.75;;
26774;SDS011;14362;51.902;7.626;2023-01-01T06:06:36;5.55;;;2.00;;
26774;SDS011;14362;51.902;7.626;2023-01-01T06:10:38;5.53;;;2.53;;
26774;SDS011;14362;51.902;7.626;2023-01-01T06:14:39;10.32;;;2.20;;
26774;SDS011;14362;51.902;7.626;2023-01-01T06:18:42;5.72;;;1.63;;
26774;SDS011;14362;51.902;7.626;2023-01-01T06:22:44;5.68;;;1.85;;
26774;SDS011;14362;51.902;7.626;2023-01-01T06:26:45;2.75;;;1.42;;
26774;SDS011;14362;51.902;7.626;2023-01-01T06:30:47;7.00;;;2.90;;
26774;SDS011;14362;51.902;7.626;2023-01-01T06:34:50;6.15;;;2.08;;
26774;SDS011;14362;51.902;7.626;2023-01-01T06:38:52;6.47;;;2.00;;
26774;SDS011;14362;51.902;7.626;2023-01-01T06:42:54;6.03;;;2.13;;
26774;SDS011;14362;51.902;7.626;2023-01-01T06:46:56;5.97;;;2.28;;
26774;SDS011;14362;51.902;7.626;2023-01-01T06:51:03;5.10;;;1.80;;
26774;SDS011;14362;51.902;7.626;2023-01-01T06:55:07;6.50;;;1.88;;
26774;SDS011;14362;51.902;7.626;2023-01-01T06:59:09;5.60;;;2.00;;
26774;SDS011;14362;51.902;7.626;2023-01-01T07:03:10;4.85;;;2.25;;
26774;SDS011;14362;51.902;7.626;2023-01-01T07:07:13;6.82;;;2.25;;
26774;SDS011;14362;51.902;7.626;2023-01-01T07:11:15;6.97;;;2.03;;
26774;SDS011;14362;51.902;7.626;2023-01-01T07:15:16;5.72;;;1.85;;
26774;SDS011;14362;51.902;7.626;2023-01-01T07:19:18;5.22;;;1.75;;
26774;SDS011;14362;51.902;7.626;2023-01-01T07:23:20;3.13;;;1.48;;
26774;SDS011;14362;51.902;7.626;2023-01-01T07:27:22;3.70;;;1.38;;
26774;SDS011;14362;51.902;7.626;2023-01-01T07:31:23;5.88;;;1.95;;
26774;SDS011;14362;51.902;7.626;2023-01-01T07:35:25;5.55;;;1.90;;
26774;SDS011;14362;51.902;7.626;2023-01-01T07:39:28;3.97;;;1.83;;
26774;SDS011;14362;51.902;7.626;2023-01-01T07:43:29;4.15;;;1.83;;
26774;SDS011;14362;51.902;7.626;2023-01-01T07:47:31;4.32;;;1.80;;
26774;SDS011;14362;51.902;7.626;2023-01-01T07:51:32;5.38;;;1.95;;
26774;SDS011;14362;51.902;7.626;2023-01-01T07:55:35;5.78;;;2.13;;
26774;SDS011;14362;51.902;7.626;2023-01-01T07:59:36;6.13;;;2.55;;
26774;SDS011;14362;51.902;7.626;2023-01-01T08:03:38;8.13;;;2.13;;
26774;SDS011;14362;51.902;7.626;2023-01-01T08:07:43;6.38;;;2.53;;
26774;SDS011;14362;51.902;7.626;2023-01-01T08:11:47;5.00;;;2.10;;
26774;SDS011;14362;51.902;7.626;2023-01-01T08:15:51;6.70;;;2.13;;
26774;SDS011;14362;51.902;7.626;2023-01-01T08:19:54;6.22;;;2.15;;
26774;SDS011;14362;51.902;7.626;2023-01-01T08:23:55;7.30;;;3.08;;
26774;SDS011;14362;51.902;7.626;2023-01-01T08:27:58;14.40;;;2.55;;
26774;SDS011;14362;51.902;7.626;2023-01-01T08:32:00;8.60;;;3.22;;
26774;SDS011;14362;51.902;7.626;2023-01-01T08:36:01;11.13;;;2.67;;
26774;SDS011;14362;51.902;7.626;2023-01-01T08:40:03;8.23;;;3.00;;
26774;SDS011;14362;51.902;7.626;2023-01-01T08:44:07;5.75;;;2.67;;
26774;SDS011;14362;51.902;7.626;2023-01-01T08:48:08;7.35;;;2.70;;
26774;SDS011;14362;51.902;7.626;2023-01-01T08:52:10;6.40;;;2.70;;
26774;SDS011;14362;51.902;7.626;2023-01-01T08:56:11;6.97;;;2.47;;
26774;SDS011;14362;51.902;7.626;2023-01-01T09:00:16;10.52;;;3.72;;
26774;SDS011;14362;51.902;7.626;2023-01-01T09:04:18;5.65;;;2.90;;
26774;SDS011;14362;51.902;7.626;2023-01-01T09:08:19;6.07;;;3.00;;
26774;SDS011;14362;51.902;7.626;2023-01-01T09:12:21;9.20;;;2.78;;
26774;SDS011;14362;51.902;7.626;2023-01-01T09:16:24;9.60;;;2.17;;
26774;SDS011;14362;51.902;7.626;2023-01-01T09:20:26;7.20;;;2.08;;
26774;SDS011;14362;51.902;7.626;2023-01-01T09:24:27;4.15;;;1.75;;
26774;SDS011;14362;51.902;7.626;2023-01-01T09:28:29;4.07;;;1.75;;
26774;SDS011;14362;51.902;7.626;2023-01-01T09:32:32;4.05;;;1.73;;
26774;SDS011;14362;51.902;7.626;2023-01-01T09:36:33;4.03;;;1.55;;
26774;SDS011;14362;51.902;7.626;2023-01-01T09:40:46;5.75;;;2.10;;
26774;SDS011;14362;51.902;7.626;2023-01-01T09:44:59;2.95;;;1.60;;
26774;SDS011;14362;51.902;7.626;2023-01-01T09:49:09;7.35;;;2.00;;
26774;SDS011;14362;51.902;7.626;2023-01-01T09:53:16;4.88;;;1.83;;
26774;SDS011;14362;51.902;7.626;2023-01-01T09:57:21;4.65;;;2.05;;
26774;SDS011;14362;51.902;7.626;2023-01-01T10:01:32;3.65;;;1.85;;
26774;SDS011;14362;51.902;7.626;2023-01-01T10:05:46;4.90;;;2.10;;
26774;SDS011;14362;51.902;7.626;2023-01-01T10:09:54;5.68;;;2.80;;
26774;SDS011;14362;51.902;7.626;2023-01-01T10:14:03;11.77;;;6.22;;
26774;SDS011;14362;51.902;7.626;2023-01-01T10:18:16;4.63;;;2.97;;
26774;SDS011;14362;51.902;7.626;2023-01-01T10:22:24;8.35;;;2.92;;
26774;SDS011;14362;51.902;7.626;2023-01-01T10:26:31;5.88;;;3.03;;
26774;SDS011;14362;51.902;7.626;2023-01-01T10:30:34;10.70;;;4.38;;
26774;SDS011;14362;51.902;7.626;2023-01-01T10:34:36;11.68;;;4.63;;
26774;SDS011;14362;51.902;7.626;2023-01-01T10:38:39;9.70;;;4.13;;
26774;SDS011;14362;51.902;7.626;2023-01-01T10:42:41;8.77;;;3.65;;
26774;SDS011;14362;51.902;7.626;2023-01-01T10:46:43;10.10;;;4.00;;
26774;SDS011;14362;51.902;7.626;2023-01-01T10:50:49;8.68;;;4.45;;
26774;SDS011;14362;51.902;7.626;2023-01-01T10:54:53;6.43;;;3.65;;
26774;SDS011;14362;51.902;7.626;2023-01-01T10:58:55;7.28;;;3.70;;
26774;SDS011;14362;51.902;7.626;2023-01-01T11:03:08;8.95;;;4.03;;
26774;SDS011;14362;51.902;7.626;2023-01-01T11:07:20;9.45;;;3.80;;
26774;SDS011;14362;51.902;7.626;2023-01-01T11:11:30;9.65;;;5.18;;
26774;SDS011;14362;51.902;7.626;2023-01-01T11:15:34;9.02;;;5.32;;
26774;SDS011;14362;51.902;7.626;2023-01-01T11:19:38;7.18;;;4.40;;
26774;SDS011;14362;51.902;7.626;2023-01-01T11:23:41;6.95;;;4.13;;
26774;SDS011;14362;51.902;7.626;2023-01-01T11:27:44;7.78;;;4.20;;
26774;SDS011;14362;51.902;7.626;2023-01-01T11:31:46;7.68;;;4.47;;
26774;SDS011;14362;51.902;7.626;2023-01-01T11:35:49;8.10;;;4.35;;
26774;SDS011;14362;51.902;7.626;2023-01-01T11:39:54;11.00;;;4.95;;
26774;SDS011;14362;51.902;7.626;2023-01-01T11:43:59;10.43;;;4.97;;
26774;SDS011;14362;51.902;7.626;2023-01-01T11:48:01;13.45;;;5.13;;
26774;SDS011;14362;51.902;7.626;2023-01-01T11:52:25;9.52;;;4.55;;
26774;SDS011;14362;51.902;7.626;2023-01-01T11:56:28;9.13;;;3.92;;
26774;SDS011;14362;51.902;7.626;2023-01-01T12:00:31;9.45;;;3.80;;
26774;SDS011;14362;51.902;7.626;2023-01-01T12:04:37;10.00;;;3.35;;
26774;SDS011;14362;51.902;7.626;2023-01-01T12:08:47;7.60;;;3.03;;
26774;SDS011;14362;51.902;7.626;2023-01-01T12:12:56;9.60;;;2.72;;
26774;SDS011;14362;51.902;7.626;2023-01-01T12:17:03;8.73;;;3.33;;
26774;SDS011;14362;51.902;7.626;2023-01-01T12:21:10;9.48;;;2.97;;
26774;SDS011;14362;51.902;7.626;2023-01-01T12:25:18;7.68;;;2.78;;
26774;SDS011;14362;51.902;7.626;2023-01-01T12:29:27;8.43;;;2.78;;
26774;SDS011;14362;51.902;7.626;2023-01-01T12:33:48;9.00;;;3.00;;
26774;SDS011;14362;51.902;7.626;2023-01-01T12:38:05;6.72;;;2.75;;
26774;SDS011;14362;51.902;7.626;2023-01-01T12:42:19;11.38;;;3.30;;
26774;SDS011;14362;51.902;7.626;2023-01-01T12:46:34;10.85;;;2.90;;
26774;SDS011;14362;51.902;7.626;2023-01-01T12:50:48;11.75;;;3.53;;
26774;SDS011;14362;51.902;7.626;2023-01-01T12:55:07;9.23;;;2.63;;
26774;SDS011;14362;51.902;7.626;2023-01-01T12:59:25;6.32;;;2.53;;
26774;SDS011;14362;51.902;7.626;2023-01-01T13:03:30;8.27;;;2.83;;
26774;SDS011;14362;51.902;7.626;2023-01-01T13:07:38;4.93;;;2.25;;
26774;SDS011;14362;51.902;7.626;2023-01-01T13:11:44;9.27;;;3.10;;
26774;SDS011;14362;51.902;7.626;2023-01-01T13:15:51;6.00;;;2.38;;
26774;SDS011;14362;51.902;7.626;2023-01-01T13:19:55;8.95;;;2.95;;
26774;SDS011;14362;51.902;7.626;2023-01-01T13:24:04;5.80;;;2.20;;
26774;SDS011;14362;51.902;7.626;2023-01-01T13:28:18;10.38;;;2.63;;
26774;SDS011;14362;51.902;7.626;2023-01-01T13:32:20;8.70;;;2.45;;
26774;SDS011;14362;51.902;7.626;2023-01-01T13:36:30;8.68;;;2.75;;
26774;SDS011;14362;51.902;7.626;2023-01-01T13:44:53;6.57;;;2.67;;
26774;SDS011;14362;51.902;7.626;2023-01-01T13:48:59;8.20;;;2.95;;
26774;SDS011;14362;51.902;7.626;2023-01-01T13:53:19;8.25;;;3.25;;
26774;SDS011;14362;51.902;7.626;2023-01-01T13:57:34;12.13;;;2.90;;
26774;SDS011;14362;51.902;7.626;2023-01-01T14:01:54;6.13;;;2.42;;
26774;SDS011;14362;51.902;7.626;2023-01-01T14:06:01;10.77;;;2.75;;
26774;SDS011;14362;51.902;7.626;2023-01-01T14:14:25;9.50;;;2.67;;
26774;SDS011;14362;51.902;7.626;2023-01-01T14:18:30;8.75;;;2.90;;
26774;SDS011;14362;51.902;7.626;2023-01-01T14:22:33;5.25;;;2.67;;
26774;SDS011;14362;51.902;7.626;2023-01-01T14:26:36;9.40;;;2.80;;
26774;SDS011;14362;51.902;7.626;2023-01-01T14:30:42;7.18;;;2.60;;
26774;SDS011;14362;51.902;7.626;2023-01-01T14:34:44;8.50;;;2.80;;
26774;SDS011;14362;51.902;7.626;2023-01-01T14:38:46;6.15;;;2.70;;
26774;SDS011;14362;51.902;7.626;2023-01-01T14:42:49;8.93;;;3.10;;
26774;SDS011;14362;51.902;7.626;2023-01-01T14:46:55;6.88;;;2.92;;
26774;SDS011;14362;51.902;7.626;2023-01-01T14:50:57;7.15;;;2.67;;
26774;SDS011;14362;51.902;7.626;2023-01-01T14:54:58;10.25;;;3.47;;
26774;SDS011;14362;51.902;7.626;2023-01-01T14:59:03;8.90;;;2.75;;
26774;SDS011;14362;51.902;7.626;2023-01-01T15:03:12;7.93;;;2.90;;
26774;SDS011;14362;51.902;7.626;2023-01-01T15:07:18;8.25;;;3.03;;
26774;SDS011;14362;51.902;7.626;2023-01-01T15:11:21;11.30;;;3.55;;
26774;SDS011;14362;51.902;7.626;2023-01-01T15:15:37;6.22;;;2.80;;
26774;SDS011;14362;51.902;7.626;2023-01-01T15:19:42;6.10;;;2.70;;
26774;SDS011;14362;51.902;7.626;2023-01-01T15:23:50;8.30;;;3.10;;
26774;SDS011;14362;51.902;7.626;2023-01-01T15:27:54;8.05;;;3.38;;
26774;SDS011;14362;51.902;7.626;2023-01-01T15:31:57;8.13;;;2.95;;
26774;SDS011;14362;51.902;7.626;2023-01-01T15:36:02;5.88;;;2.83;;
26774;SDS011;14362;51.902;7.626;2023-01-01T15:40:30;9.95;;;2.50;;
26774;SDS011;14362;51.902;7.626;2023-01-01T15:44:34;10.68;;;3.20;;
26774;SDS011;14362;51.902;7.626;2023-01-01T15:48:42;8.57;;;3.30;;
26774;SDS011;14362;51.902;7.626;2023-01-01T15:52:50;7.30;;;2.70;;
26774;SDS011;14362;51.902;7.626;2023-01-01T15:56:55;6.13;;;2.97;;
26774;SDS011;14362;51.902;7.626;2023-01-01T16:00:57;9.18;;;2.75;;
26774;SDS011;14362;51.902;7.626;2023-01-01T16:05:02;10.38;;;2.85;;
26774;SDS011;14362;51.902;7.626;2023-01-01T16:09:05;5.43;;;2.72;;
26774;SDS011;14362;51.902;7.626;2023-01-01T16:13:09;7.90;;;3.15;;
26774;SDS011;14362;51.902;7.626;2023-01-01T16:17:12;10.10;;;3.90;;
26774;SDS011;14362;51.902;7.626;2023-01-01T16:21:16;10.75;;;4.22;;
26774;SDS011;14362;51.902;7.626;2023-01-01T16:25:20;6.68;;;3.00;;
26774;SDS011;14362;51.902;7.626;2023-01-01T16:29:22;8.60;;;3.33;;
26774;SDS011;14362;51.902;7.626;2023-01-01T16:33:24;8.30;;;2.90;;
26774;SDS011;14362;51.902;7.626;2023-01-01T16:37:25;7.82;;;2.83;;
26774;SDS011;14362;51.902;7.626;2023-01-01T16:41:28;12.85;;;2.83;;
26774;SDS011;14362;51.902;7.626;2023-01-01T16:45:29;8.82;;;2.97;;
26774;SDS011;14362;51.902;7.626;2023-01-01T16:49:31;6.75;;;2.33;;
26774;SDS011;14362;51.902;7.626;2023-01-01T16:53:32;14.50;;;9.95;;
26774;SDS011;14362;51.902;7.626;2023-01-01T16:57:35;8.23;;;4.75;;
26774;SDS011;14362;51.902;7.626;2023-01-01T17:01:36;6.03;;;3.40;;
26774;SDS011;14362;51.902;7.626;2023-01-01T17:05:37;9.05;;;3.90;;
26774;SDS011;14362;51.902;7.626;2023-01-01T17:09:40;8.45;;;3.85;;
26774;SDS011;14362;51.902;7.626;2023-01-01T17:13:43;9.48;;;4.75;;
26774;SDS011;14362;51.902;7.626;2023-01-01T17:17:46;8.75;;;4.07;;
26774;SDS011;14362;51.902;7.626;2023-01-01T17:21:47;8.80;;;4.53;;
26774;SDS011;14362;51.902;7.626;2023-01-01T17:25:49;8.57;;;4.10;;
26774;SDS011;14362;51.902;7.626;2023-01-01T17:29:52;15.75;;;8.18;;
26774;SDS011;14362;51.902;7.626;2023-01-01T17:33:53;16.70;;;9.35;;
26774;SDS011;14362;51.902;7.626;2023-01-01T17:37:55;15.75;;;10.20;;
26774;SDS011;14362;51.902;7.626;2023-01-01T17:41:56;9.70;;;5.88;;
26774;SDS011;14362;51.902;7.626;2023-01-01T17:46:02;14.95;;;6.75;;
26774;SDS011;14362;51.902;7.626;2023-01-01T17:50:04;11.15;;;5.28;;
26774;SDS011;14362;51.902;7.626;2023-01-01T17:54:07;8.35;;;4.95;;
26774;SDS011;14362;51.902;7.626;2023-01-01T17:58:12;8.38;;;5.07;;
26774;SDS011;14362;51.902;7.626;2023-01-01T18:02:14;12.52;;;6.13;;
26774;SDS011;14362;51.902;7.626;2023-01-01T18:06:16;32.25;;;17.30;;
26774;SDS011;14362;51.902;7.626;2023-01-01T18:10:17;15.95;;;8.48;;
26774;SDS011;14362;51.902;7.626;2023-01-01T18:14:19;9.55;;;5.03;;
26774;SDS011;14362;51.902;7.626;2023-01-01T18:18:21;8.88;;;4.50;;
26774;SDS011;14362;51.902;7.626;2023-01-01T18:22:23;7.22;;;4.03;;
26774;SDS011;14362;51.902;7.626;2023-01-01T18:26:25;5.80;;;4.05;;
26774;SDS011;14362;51.902;7.626;2023-01-01T18:30:28;7.13;;;4.20;;
26774;SDS011;14362;51.902;7.626;2023-01-01T18:34:30;7.10;;;3.38;;
26774;SDS011;14362;51.902;7.626;2023-01-01T18:38:32;5.32;;;3.10;;
26774;SDS011;14362;51.902;7.626;2023-01-01T18:42:36;5.53;;;4.03;;
26774;SDS011;14362;51.902;7.626;2023-01-01T18:46:43;7.40;;;4.72;;
26774;SDS011;14362;51.902;7.626;2023-01-01T18:50:47;6.80;;;3.83;;
26774;SDS011;14362;51.902;7.626;2023-01-01T18:54:50;7.03;;;4.68;;
26774;SDS011;14362;51.902;7.626;2023-01-01T18:58:57;6.47;;;4.63;;
26774;SDS011;14362;51.902;7.626;2023-01-01T19:02:59;6.25;;;3.72;;
26774;SDS011;14362;51.902;7.626;2023-01-01T19:07:04;7.93;;;4.65;;
26774;SDS011;14362;51.902;7.626;2023-01-01T19:11:09;6.45;;;4.18;;
26774;SDS011;14362;51.902;7.626;2023-01-01T19:15:17;12.20;;;7.05;;
26774;SDS011;14362;51.902;7.626;2023-01-01T19:19:20;12.00;;;7.25;;
26774;SDS011;14362;51.902;7.626;2023-01-01T19:23:24;13.05;;;8.13;;
26774;SDS011;14362;51.902;7.626;2023-01-01T19:27:27;17.55;;;10.35;;
26774;SDS011;14362;51.902;7.626;2023-01-01T19:31:32;9.68;;;6.75;;
26774;SDS011;14362;51.902;7.626;2023-01-01T19:35:33;18.17;;;10.85;;
26774;SDS011;14362;51.902;7.626;2023-01-01T19:39:36;21.98;;;13.30;;
26774;SDS011;14362;51.902;7.626;2023-01-01T19:43:38;11.55;;;6.65;;
26774;SDS011;14362;51.902;7.626;2023-01-01T19:47:39;6.22;;;4.32;;
26774;SDS011;14362;51.902;7.626;2023-01-01T19:51:42;6.25;;;4.13;;
26774;SDS011;14362;51.902;7.626;2023-01-01T19:55:44;7.68;;;4.10;;
26774;SDS011;14362;51.902;7.626;2023-01-01T19:59:46;6.22;;;4.22;;
26774;SDS011;14362;51.902;7.626;2023-01-01T20:03:47;11.65;;;5.38;;
26774;SDS011;14362;51.902;7.626;2023-01-01T20:07:49;7.07;;;4.97;;
26774;SDS011;14362;51.902;7.626;2023-01-01T20:11:52;9.60;;;5.05;;
26774;SDS011;14362;51.902;7.626;2023-01-01T20:15:53;7.13;;;4.85;;
26774;SDS011;14362;51.902;7.626;2023-01-01T20:19:54;9.50;;;6.18;;
26774;SDS011;14362;51.902;7.626;2023-01-01T20:23:57;11.68;;;6.88;;
26774;SDS011;14362;51.902;7.626;2023-01-01T20:27:59;12.02;;;7.50;;
26774;SDS011;14362;51.902;7.626;2023-01-01T20:32:18;11.32;;;7.53;;
26774;SDS011;14362;51.902;7.626;2023-01-01T20:36:20;6.22;;;5.60;;
26774;SDS011;14362;51.902;7.626;2023-01-01T20:40:39;7.57;;;5.35;;
26774;SDS011;14362;51.902;7.626;2023-01-01T20:44:41;14.05;;;6.80;;
26774;SDS011;14362;51.902;7.626;2023-01-01T20:48:43;11.75;;;6.60;;
26774;SDS011;14362;51.902;7.626;2023-01-01T20:52:44;7.70;;;5.38;;
26774;SDS011;14362;51.902;7.626;2023-01-01T20:56:46;11.07;;;6.95;;
26774;SDS011;14362;51.902;7.626;2023-01-01T21:00:48;7.97;;;5.90;;
26774;SDS011;14362;51.902;7.626;2023-01-01T21:04:50;8.73;;;6.45;;
26774;SDS011;14362;51.902;7.626;2023-01-01T21:08:51;9.88;;;5.97;;
26774;SDS011;14362;51.902;7.626;2023-01-01T21:12:52;10.32;;;6.43;;
26774;SDS011;14362;51.902;7.626;2023-01-01T21:16:55;10.20;;;6.88;;
26774;SDS011;14362;51.902;7.626;2023-01-01T21:20:57;7.90;;;5.85;;
26774;SDS011;14362;51.902;7.626;2023-01-01T21:24:58;14.40;;;6.80;;
26774;SDS011;14362;51.902;7.626;2023-01-01T21:29:04;11.35;;;5.88;;
26774;SDS011;14362;51.902;7.626;2023-01-01T21:33:13;10.70;;;6.25;;
26774;SDS011;14362;51.902;7.626;2023-01-01T21:37:20;10.95;;;6.07;;
26774;SDS011;14362;51.902;7.626;2023-01-01T21:41:42;11.68;;;6.40;;
26774;SDS011;14362;51.902;7.626;2023-01-01T21:45:44;8.90;;;6.00;;
26774;SDS011;14362;51.902;7.626;2023-01-01T21:49:48;8.63;;;6.15;;
26774;SDS011;14362;51.902;7.626;2023-01-01T21:53:53;9.48;;;6.65;;
26774;SDS011;14362;51.902;7.626;2023-01-01T21:58:02;10.95;;;7.00;;
26774;SDS011;14362;51.902;7.626;2023-01-01T22:02:34;11.77;;;7.32;;
26774;SDS011;14362;51.902;7.626;2023-01-01T22:06:39;10.27;;;7.68;;
26774;SDS011;14362;51.902;7.626;2023-01-01T22:10:42;10.20;;;6.90;;
26774;SDS011;14362;51.902;7.626;2023-01-01T22:14:44;9.68;;;6.85;;
26774;SDS011;14362;51.902;7.626;2023-01-01T22:18:46;13.23;;;7.88;;
26774;SDS011;14362;51.902;7.626;2023-01-01T22:22:49;10.18;;;7.18;;
26774;SDS011;14362;51.902;7.626;2023-01-01T22:26:51;13.15;;;7.75;;
26774;SDS011;14362;51.902;7.626;2023-01-01T22:30:53;9.50;;;6.63;;
26774;SDS011;14362;51.902;7.626;2023-01-01T22:34:59;11.90;;;7.25;;
26774;SDS011;14362;51.902;7.626;2023-01-01T22:39:11;12.73;;;7.93;;
26774;SDS011;14362;51.902;7.626;2023-01-01T22:43:16;12.65;;;7.00;;
26774;SDS011;14362;51.902;7.626;2023-01-01T22:47:24;12.80;;;7.07;;
26774;SDS011;14362;51.902;7.626;2023-01-01T22:51:33;11.07;;;6.68;;
26774;SDS011;14362;51.902;7.626;2023-01-01T22:55:42;12.13;;;5.90;;
26774;SDS011;14362;51.902;7.626;2023-01-01T22:59:44;11.03;;;6.00;;
26774;SDS011;14362;51.902;7.626;2023-01-01T23:03:46;10.45;;;5.78;;
26774;SDS011;14362;51.902;7.626;2023-01-01T23:07:47;9.35;;;5.80;;
26774;SDS011;14362;51.902;7.626;2023-01-01T23:11:50;10.32;;;5.75;;
26774;SDS011;14362;51.902;7.626;2023-01-01T23:15:53;12.63;;;5.93;;
26774;SDS011;14362;51.902;7.626;2023-01-01T23:20:01;10.13;;;6.10;;
26774;SDS011;14362;51.902;7.626;2023-01-01T23:24:04;8.55;;;6.07;;
26774;SDS011;14362;51.902;7.626;2023-01-01T23:28:09;11.90;;;6.32;;
26774;SDS011;14362;51.902;7.626;2023-01-01T23:32:11;13.88;;;6.38;;
26774;SDS011;14362;51.902;7.626;2023-01-01T23:36:13;12.82;;;6.30;;
26774;SDS011;14362;51.902;7.626;2023-01-01T23:40:14;10.63;;;6.47;;
26774;SDS011;14362;51.902;7.626;2023-01-01T23:44:17;10.50;;;5.80;;
26774;SDS011;14362;51.902;7.626;2023-01-01T23:48:18;14.13;;;6.47;;
26774;SDS011;14362;51.902;7.626;2023-01-01T23:52:20;12.10;;;6.45;;
26774;SDS011;14362;51.902;7.626;2023-01-01T23:56:22;14.00;;;6.05;;
